UPSVAC Airport Information Service

Chicago Rockford International Airport (800-899)

ICAO: KRFD Country: United States
Latitude: 42.1953 Longitude: -89.0972
Latest Arrival : SOO3605 (A) (KTPA-KRFD) Latest Departure : SOO3604 (A) (KRFD-KTPA)


WX CaptureLIVE
Data provided by noaa.gov | Fetched at 16:44:44

METAR : KRFD 281554Z 21010KT 10SM FEW030 BKN200 OVC250 28/23 A3007 RMK AO2 SLP176 T02780233 PNO $

TAF : KRFD 281502Z 2815/2912 25008KT P6SM SCT040 BKN200 FM290000 21010KT P6SM SCT040 BKN150 PROB30 2905/2908 36020G35KT 2SM TSRA SCT009 BKN020CB


Runway Data for KRFD
Data provided by openaviationdata.com

Runway ID Mag Var Hdg Length Elevation Surface ILS Freq ILS Id ILS Slope
1 0 8202 ft 742 ft Asphalt 109.3 IRFD 2
7 0 66° 9992 ft 742 ft Asphalt 109.55 IUDY 3
19 0 186° 8202 ft 742 ft Asphalt -- -- --
25 0 246° 9992 ft 742 ft Asphalt -- -- --

Chicago Rockford International Airport (800-899), United States
Use only for reference purposes



Not for navigational purposes.